Time;durP1;ratioP1;P1;durP2;ratioP2;P2;SDS_P1;SDS_P2;PMS_P1;PMS_P2;Temp;Humidity;BMP_temperature;BMP_pressure;BME280_temperature;BME280_humidity;BME280_pressure;Samples;Min_cycle;Max_cycle;Signal;HPM_P1;HPM_P2
2021/04/09 00:01:53;;;;;;;15.20;6.70;;;4.10;99.90;;;;;;5055469;28;20698;-67
2021/04/09 00:04:20;;;;;;;18.67;7.07;;;4.10;99.90;;;;;;5056144;28;20202;-67
2021/04/09 00:06:47;;;;;;;10.47;6.67;;;4.10;99.90;;;;;;5049299;28;20255;-67
2021/04/09 00:09:15;;;;;;;17.27;7.80;;;4.00;99.90;;;;;;5053448;28;20220;-68
2021/04/09 00:11:43;;;;;;;13.53;7.60;;;4.00;99.90;;;;;;5048051;28;20226;-67
2021/04/09 00:14:11;;;;;;;14.70;7.30;;;4.00;99.90;;;;;;5050520;28;20325;-67
2021/04/09 00:16:38;;;;;;;14.13;7.43;;;4.00;99.90;;;;;;5048158;28;20253;-66
2021/04/09 00:19:06;;;;;;;13.00;8.63;;;4.00;99.90;;;;;;5052664;28;20216;-67
2021/04/09 00:21:33;;;;;;;16.23;8.73;;;4.00;99.90;;;;;;5056584;28;20206;-68
2021/04/09 00:23:59;;;;;;;14.77;7.90;;;3.90;99.90;;;;;;5056926;28;20210;-69
2021/04/09 00:26:27;;;;;;;15.77;8.50;;;3.90;99.90;;;;;;5056423;28;20270;-68
2021/04/09 00:28:53;;;;;;;15.47;8.97;;;3.90;99.90;;;;;;5062243;28;20296;-67
2021/04/09 00:31:20;;;;;;;17.23;8.20;;;3.90;99.90;;;;;;5057273;28;20308;-68
2021/04/09 00:33:46;;;;;;;15.67;8.27;;;3.90;99.90;;;;;;5053470;28;20297;-68
2021/04/09 00:36:13;;;;;;;15.97;8.77;;;3.80;99.90;;;;;;5056837;28;20641;-68
2021/04/09 00:38:39;;;;;;;20.60;9.37;;;3.80;99.90;;;;;;5056014;28;20264;-67
2021/04/09 00:41:06;;;;;;;16.53;9.00;;;3.70;99.90;;;;;;5062319;28;20209;-68
2021/04/09 00:43:33;;;;;;;19.83;9.20;;;3.70;99.90;;;;;;5059295;28;20311;-68
2021/04/09 00:45:59;;;;;;;18.47;9.10;;;3.70;99.90;;;;;;5059396;28;20292;-67
2021/04/09 00:48:26;;;;;;;16.27;9.77;;;3.70;99.90;;;;;;5054510;28;20217;-67
2021/04/09 00:50:52;;;;;;;17.23;9.67;;;3.60;99.90;;;;;;5055357;28;20332;-68
2021/04/09 00:53:19;;;;;;;15.40;9.40;;;3.60;99.90;;;;;;5058341;28;20221;-67
2021/04/09 00:55:47;;;;;;;19.40;10.00;;;3.60;99.90;;;;;;5055266;28;20297;-67
2021/04/09 00:58:15;;;;;;;17.53;9.97;;;3.60;99.90;;;;;;5058821;28;20225;-67
2021/04/09 01:00:42;;;;;;;21.83;10.37;;;3.60;99.90;;;;;;5055947;28;20209;-67
2021/04/09 01:03:09;;;;;;;21.20;10.27;;;3.60;99.90;;;;;;5055877;28;20617;-68
2021/04/09 01:05:35;;;;;;;20.47;11.67;;;3.50;99.90;;;;;;5059134;28;20206;-67
2021/04/09 01:08:03;;;;;;;20.40;10.67;;;3.50;99.90;;;;;;5056065;28;20748;-66
2021/04/09 01:10:30;;;;;;;23.53;11.67;;;3.50;99.90;;;;;;5055011;28;20348;-67
2021/04/09 01:12:56;;;;;;;20.97;11.60;;;3.50;99.90;;;;;;5058903;28;20303;-66
2021/04/09 01:15:23;;;;;;;20.73;11.90;;;3.50;99.90;;;;;;5055414;28;20268;-67
2021/04/09 01:17:58;;;;;;;18.77;11.47;;;3.40;99.90;;;;;;5056187;28;20234;-67
2021/04/09 01:21:09;;;;;;;18.87;11.50;;;3.40;99.90;;;;;;5056061;28;20197;-69
2021/04/09 01:23:49;;;;;;;21.23;11.30;;;3.40;99.90;;;;;;5043831;28;20204;-66
2021/04/09 01:27:00;;;;;;;20.33;11.60;;;3.40;99.90;;;;;;5058355;28;20312;-66
2021/04/09 01:29:52;;;;;;;22.30;11.70;;;3.40;99.90;;;;;;5055493;28;20201;-69
2021/04/09 01:32:20;;;;;;;19.20;11.60;;;3.40;99.90;;;;;;5054563;28;20198;-66
2021/04/09 01:34:49;;;;;;;18.87;11.07;;;3.40;99.90;;;;;;5052326;28;20206;-67
2021/04/09 01:37:16;;;;;;;22.67;10.93;;;3.30;99.90;;;;;;5061233;28;20319;-66
2021/04/09 01:39:49;;;;;;;19.33;11.17;;;3.40;99.90;;;;;;5058797;28;20210;-66
2021/04/09 01:42:18;;;;;;;19.93;11.60;;;3.30;99.90;;;;;;5059597;28;20658;-67
2021/04/09 01:44:50;;;;;;;18.33;10.23;;;3.30;99.90;;;;;;5054791;28;20293;-66
2021/04/09 01:47:17;;;;;;;20.80;10.17;;;3.30;99.90;;;;;;5052934;28;20198;-67
2021/04/09 01:49:45;;;;;;;17.23;9.30;;;3.30;99.90;;;;;;5054845;28;20293;-65
2021/04/09 01:52:12;;;;;;;18.03;9.80;;;3.30;99.90;;;;;;5060831;28;20267;-68
2021/04/09 01:54:40;;;;;;;18.50;9.77;;;3.30;99.90;;;;;;5055527;28;20293;-66
2021/04/09 01:57:10;;;;;;;20.27;10.70;;;3.30;99.90;;;;;;5056099;28;20553;-65
2021/04/09 01:59:39;;;;;;;21.17;10.30;;;3.30;99.90;;;;;;5058793;28;20210;-68
2021/04/09 02:02:06;;;;;;;21.00;9.87;;;3.30;99.90;;;;;;5059752;28;20620;-66
2021/04/09 02:04:34;;;;;;;17.03;10.30;;;3.30;99.90;;;;;;5055377;28;20206;-67
2021/04/09 02:07:03;;;;;;;18.43;9.63;;;3.30;99.90;;;;;;5051186;28;20225;-68
2021/04/09 02:09:32;;;;;;;19.00;9.43;;;3.30;99.90;;;;;;5058885;28;20857;-66
2021/04/09 02:12:00;;;;;;;18.30;9.70;;;3.20;99.90;;;;;;5053132;28;20316;-66
2021/04/09 02:14:28;;;;;;;20.03;10.23;;;3.30;99.90;;;;;;5057042;28;20396;-66
2021/04/09 02:16:56;;;;;;;20.23;9.47;;;3.20;99.90;;;;;;5056207;28;20241;-66
2021/04/09 02:19:24;;;;;;;14.50;8.77;;;3.20;99.90;;;;;;5060269;28;20237;-67
2021/04/09 02:21:51;;;;;;;16.00;7.70;;;3.20;99.90;;;;;;5060879;28;20664;-67
2021/04/09 02:24:19;;;;;;;16.40;8.77;;;3.20;99.90;;;;;;5054532;28;20295;-67
2021/04/09 02:26:45;;;;;;;18.43;8.83;;;3.20;99.90;;;;;;5057227;28;20297;-66
2021/04/09 02:29:11;;;;;;;16.83;8.50;;;3.20;99.90;;;;;;5057345;28;20300;-68
2021/04/09 02:31:39;;;;;;;17.13;8.20;;;3.20;99.90;;;;;;5054397;28;20307;-69
2021/04/09 02:34:06;;;;;;;14.17;7.73;;;3.10;99.90;;;;;;5054993;28;20210;-68
2021/04/09 02:36:32;;;;;;;13.40;7.57;;;3.10;99.90;;;;;;5052524;28;20213;-66
2021/04/09 02:39:04;;;;;;;15.57;7.87;;;3.10;99.90;;;;;;5054717;28;20214;-67
2021/04/09 02:41:36;;;;;;;14.73;8.43;;;3.10;99.90;;;;;;5056703;28;20237;-67
2021/04/09 02:44:04;;;;;;;18.10;8.83;;;3.10;99.90;;;;;;5054366;28;20198;-66
2021/04/09 02:46:37;;;;;;;13.17;7.93;;;3.10;99.90;;;;;;5053633;28;20265;-68
2021/04/09 02:49:09;;;;;;;13.13;8.00;;;3.10;99.90;;;;;;5057881;28;20205;-67
2021/04/09 02:51:37;;;;;;;13.87;7.60;;;3.00;99.90;;;;;;5049454;28;20641;-67
2021/04/09 02:54:04;;;;;;;13.80;8.30;;;3.10;99.90;;;;;;5055393;28;20654;-67
2021/04/09 02:56:32;;;;;;;12.60;8.20;;;3.00;99.90;;;;;;5057407;28;20673;-68
2021/04/09 02:59:01;;;;;;;15.93;8.27;;;3.00;99.90;;;;;;5047590;28;20300;-67
2021/04/09 03:01:28;;;;;;;15.83;7.63;;;3.00;99.90;;;;;;5055925;28;20214;-66
2021/04/09 03:03:56;;;;;;;12.27;7.43;;;3.00;99.90;;;;;;5052928;28;20241;-66
2021/04/09 03:06:23;;;;;;;14.47;8.10;;;3.00;99.90;;;;;;5050722;28;20209;-66
2021/04/09 03:08:49;;;;;;;15.43;7.10;;;3.00;99.90;;;;;;5059443;28;20210;-67
2021/04/09 03:11:16;;;;;;;15.67;7.77;;;3.00;99.90;;;;;;5053843;28;20220;-66
2021/04/09 03:13:43;;;;;;;16.63;7.90;;;3.00;99.90;;;;;;5048759;28;20345;-66
2021/04/09 03:16:13;;;;;;;15.03;6.80;;;3.00;99.90;;;;;;5052783;28;20351;-68
2021/04/09 03:18:43;;;;;;;13.43;7.23;;;2.90;99.90;;;;;;5056588;28;20202;-67
2021/04/09 03:21:09;;;;;;;12.20;6.97;;;2.90;99.90;;;;;;5053304;28;20202;-66
2021/04/09 03:23:36;;;;;;;14.23;7.37;;;2.90;99.90;;;;;;5053713;28;20201;-66
2021/04/09 03:26:02;;;;;;;13.50;7.13;;;2.90;99.90;;;;;;5057184;28;20623;-67
2021/04/09 03:28:29;;;;;;;12.70;6.57;;;2.90;99.90;;;;;;5055706;28;20251;-67
2021/04/09 03:30:56;;;;;;;11.87;6.30;;;2.90;99.90;;;;;;5054138;28;20564;-66
2021/04/09 03:33:24;;;;;;;16.20;6.70;;;2.80;99.90;;;;;;5054497;28;20198;-67
2021/04/09 03:35:51;;;;;;;13.53;6.47;;;2.80;99.90;;;;;;5059369;28;20209;-67
2021/04/09 03:38:18;;;;;;;13.47;6.23;;;2.80;99.90;;;;;;5056457;28;20217;-67
2021/04/09 03:40:45;;;;;;;12.80;6.50;;;2.70;99.90;;;;;;5058714;28;20207;-66
2021/04/09 03:43:12;;;;;;;13.63;6.83;;;2.70;99.90;;;;;;5055999;28;20654;-67
2021/04/09 03:45:39;;;;;;;10.73;6.20;;;2.60;99.90;;;;;;5051718;28;20309;-66
2021/04/09 03:48:07;;;;;;;15.63;6.13;;;2.60;99.90;;;;;;5056909;28;20300;-67
2021/04/09 03:50:34;;;;;;;14.17;6.43;;;2.60;99.90;;;;;;5058227;28;20225;-66
2021/04/09 03:53:00;;;;;;;13.70;6.33;;;2.50;99.90;;;;;;5052302;28;20296;-67
2021/04/09 03:55:27;;;;;;;15.50;7.67;;;2.50;99.90;;;;;;5060937;28;20202;-66
2021/04/09 03:57:53;;;;;;;16.80;6.80;;;2.50;99.90;;;;;;5055752;28;20216;-66
2021/04/09 04:00:21;;;;;;;14.60;6.43;;;2.50;99.90;;;;;;5059196;28;20281;-66
2021/04/09 04:02:47;;;;;;;11.33;6.60;;;2.50;99.90;;;;;;5058446;28;20609;-68
2021/04/09 04:05:16;;;;;;;13.17;7.07;;;2.50;99.90;;;;;;5053888;28;20684;-67
2021/04/09 04:07:42;;;;;;;11.27;6.57;;;2.50;99.90;;;;;;5059053;28;20316;-66
2021/04/09 04:10:10;;;;;;;13.07;6.50;;;2.40;99.90;;;;;;5054535;28;20318;-68
2021/04/09 04:12:36;;;;;;;13.43;6.40;;;2.40;99.90;;;;;;5059739;28;20210;-66
2021/04/09 04:15:04;;;;;;;12.93;6.67;;;2.50;99.90;;;;;;5057030;28;20261;-67
2021/04/09 04:17:30;;;;;;;10.30;6.30;;;2.40;99.90;;;;;;5061251;28;20197;-66
2021/04/09 04:19:57;;;;;;;11.03;6.70;;;2.40;99.90;;;;;;5051027;28;20213;-66
2021/04/09 04:22:24;;;;;;;12.63;6.83;;;2.40;99.90;;;;;;5059676;28;20288;-66
2021/04/09 04:24:50;;;;;;;12.50;6.60;;;2.40;99.90;;;;;;5058147;28;20209;-66
2021/04/09 04:27:16;;;;;;;10.17;5.67;;;2.40;99.90;;;;;;5052676;28;20229;-66
2021/04/09 04:29:43;;;;;;;11.20;6.70;;;2.40;99.90;;;;;;5053224;28;20265;-66
2021/04/09 04:32:09;;;;;;;13.47;6.63;;;2.40;99.90;;;;;;5058805;28;20252;-66
2021/04/09 04:34:35;;;;;;;11.70;6.50;;;2.50;99.90;;;;;;5052946;28;20289;-66
2021/04/09 04:37:02;;;;;;;12.00;6.83;;;2.50;99.90;;;;;;5057646;28;20216;-68
2021/04/09 04:39:29;;;;;;;13.23;7.20;;;2.50;99.90;;;;;;5057153;28;20211;-66
2021/04/09 04:41:56;;;;;;;15.40;8.17;;;2.60;99.90;;;;;;5056394;28;20198;-66
2021/04/09 04:44:22;;;;;;;14.70;7.30;;;2.60;99.90;;;;;;5059221;28;20206;-66
2021/04/09 04:46:48;;;;;;;15.80;8.17;;;2.60;99.90;;;;;;5058717;28;20225;-68
2021/04/09 04:49:15;;;;;;;11.67;6.60;;;2.70;99.90;;;;;;5061648;28;20335;-66
2021/04/09 04:51:41;;;;;;;12.20;6.40;;;2.70;99.90;;;;;;5055699;28;20224;-66
2021/04/09 04:54:07;;;;;;;11.17;6.90;;;2.80;99.90;;;;;;5054330;28;20506;-67
2021/04/09 04:56:35;;;;;;;13.00;6.53;;;2.80;99.90;;;;;;5056286;28;20229;-66
2021/04/09 04:59:01;;;;;;;12.00;6.23;;;2.90;99.90;;;;;;5058368;28;20354;-67
2021/04/09 05:01:28;;;;;;;10.60;6.50;;;2.90;99.90;;;;;;5053496;28;20298;-67
2021/04/09 05:03:54;;;;;;;14.50;6.60;;;3.00;99.90;;;;;;5054139;28;20255;-67
2021/04/09 05:06:20;;;;;;;11.87;6.90;;;3.00;99.90;;;;;;5052669;28;20668;-67
2021/04/09 05:08:47;;;;;;;11.90;6.50;;;3.10;99.90;;;;;;5055441;28;20255;-67
2021/04/09 05:11:13;;;;;;;12.37;6.60;;;3.20;99.90;;;;;;5056412;28;20250;-66
2021/04/09 05:13:41;;;;;;;11.03;6.43;;;3.30;99.90;;;;;;5055847;28;20643;-67
2021/04/09 05:16:07;;;;;;;12.60;6.40;;;3.30;99.90;;;;;;5054232;28;20229;-67
2021/04/09 05:18:34;;;;;;;14.40;6.30;;;3.40;99.90;;;;;;5052140;28;20296;-67
2021/04/09 05:21:00;;;;;;;8.53;5.77;;;3.50;99.90;;;;;;5057419;28;20221;-66
2021/04/09 05:23:26;;;;;;;11.90;6.40;;;3.50;99.90;;;;;;5054303;28;20673;-66
2021/04/09 05:25:53;;;;;;;11.77;6.10;;;3.60;99.90;;;;;;5056636;28;20659;-66
2021/04/09 05:28:19;;;;;;;13.00;6.17;;;3.70;99.90;;;;;;5056586;28;20288;-66
2021/04/09 05:30:46;;;;;;;11.40;6.60;;;3.70;99.90;;;;;;5058487;28;20306;-66
2021/04/09 05:33:12;;;;;;;15.37;6.60;;;3.80;99.90;;;;;;5058929;28;20851;-67
2021/04/09 05:35:39;;;;;;;13.17;6.93;;;3.80;99.90;;;;;;5051691;28;20218;-67
2021/04/09 05:38:05;;;;;;;11.90;6.73;;;3.90;99.90;;;;;;5051723;28;20856;-69
2021/04/09 05:40:31;;;;;;;13.67;6.70;;;4.00;99.90;;;;;;5055847;28;20229;-67
2021/04/09 05:42:59;;;;;;;17.93;6.93;;;4.10;99.90;;;;;;5052532;28;20297;-66
2021/04/09 05:45:26;;;;;;;14.63;7.37;;;4.10;99.90;;;;;;5051491;28;20260;-67
2021/04/09 05:47:54;;;;;;;14.67;7.37;;;4.10;99.90;;;;;;5053029;28;20432;-66
2021/04/09 05:50:21;;;;;;;11.80;6.90;;;4.20;99.90;;;;;;5055895;28;20293;-67
2021/04/09 05:52:48;;;;;;;15.27;6.90;;;4.30;99.90;;;;;;5057088;28;20558;-67
2021/04/09 05:55:15;;;;;;;11.97;6.63;;;4.30;99.90;;;;;;5056508;28;20730;-67
2021/04/09 05:57:41;;;;;;;13.47;7.03;;;4.40;99.90;;;;;;5057165;28;20209;-68
2021/04/09 06:00:10;;;;;;;15.97;6.53;;;4.50;99.90;;;;;;5056567;28;20232;-68
2021/04/09 06:02:36;;;;;;;12.37;6.20;;;4.70;99.90;;;;;;5052176;28;20229;-67
2021/04/09 06:05:04;;;;;;;10.63;6.40;;;4.70;99.90;;;;;;5056122;28;20231;-68
2021/04/09 06:07:30;;;;;;;11.73;6.33;;;4.80;99.90;;;;;;5055983;28;20216;-69
2021/04/09 06:09:56;;;;;;;9.10;6.60;;;4.80;99.90;;;;;;5056849;28;20297;-69
2021/04/09 06:12:23;;;;;;;12.37;6.37;;;4.90;99.90;;;;;;5057501;28;20221;-69
2021/04/09 06:14:51;;;;;;;13.17;7.27;;;4.90;99.90;;;;;;5050605;28;20321;-68
2021/04/09 06:17:18;;;;;;;10.87;6.20;;;5.00;99.90;;;;;;5055739;28;20214;-68
2021/04/09 06:19:47;;;;;;;10.50;6.13;;;5.10;99.90;;;;;;5060861;28;20197;-70
2021/04/09 06:22:14;;;;;;;14.60;6.93;;;5.20;99.90;;;;;;5055992;28;20738;-69
2021/04/09 06:24:41;;;;;;;14.80;6.80;;;5.20;99.90;;;;;;5060560;28;20198;-71
2021/04/09 06:27:09;;;;;;;12.40;6.47;;;5.30;99.90;;;;;;5057282;28;20220;-69
2021/04/09 06:29:35;;;;;;;10.63;6.63;;;5.40;99.90;;;;;;5053295;28;20216;-69
2021/04/09 06:32:02;;;;;;;10.30;6.17;;;5.40;99.90;;;;;;5053665;28;20240;-69
2021/04/09 06:34:28;;;;;;;12.23;6.60;;;5.50;99.90;;;;;;5052904;28;20209;-70
2021/04/09 06:36:54;;;;;;;13.97;6.60;;;5.60;99.90;;;;;;5053733;28;20305;-70
2021/04/09 06:39:22;;;;;;;11.10;6.97;;;5.70;99.90;;;;;;5054052;28;20680;-69
2021/04/09 06:41:49;;;;;;;18.13;7.20;;;5.80;99.90;;;;;;5052705;28;20211;-71
2021/04/09 06:44:17;;;;;;;14.53;7.00;;;5.90;99.90;;;;;;5053029;28;20213;-68
2021/04/09 06:46:43;;;;;;;10.77;6.90;;;6.00;99.90;;;;;;5057833;28;20209;-70
2021/04/09 06:49:10;;;;;;;12.50;6.50;;;6.10;99.90;;;;;;5051097;28;20569;-70
2021/04/09 06:51:38;;;;;;;11.37;6.37;;;6.20;99.90;;;;;;5053451;28;20706;-71
2021/04/09 06:54:07;;;;;;;13.10;7.33;;;6.20;99.90;;;;;;5045073;28;20214;-69
2021/04/09 06:56:34;;;;;;;9.90;6.57;;;6.30;99.90;;;;;;5054555;28;20293;-71
2021/04/09 06:59:01;;;;;;;12.87;6.83;;;6.40;99.90;;;;;;5054248;28;21213;-69
2021/04/09 07:01:28;;;;;;;15.43;6.60;;;6.50;99.90;;;;;;5053676;28;20217;-69
2021/04/09 07:03:55;;;;;;;9.50;6.70;;;6.60;99.90;;;;;;5053405;28;20210;-68
2021/04/09 07:06:22;;;;;;;8.10;5.97;;;6.80;98.80;;;;;;5047171;28;20237;-69
2021/04/09 07:08:48;;;;;;;9.47;5.83;;;6.80;97.90;;;;;;5051348;28;20568;-69
2021/04/09 07:11:15;;;;;;;10.33;6.70;;;6.80;97.80;;;;;;5051748;28;20228;-70
2021/04/09 07:13:48;;;;;;;10.13;6.77;;;6.90;97.40;;;;;;5047229;28;20226;-69
2021/04/09 07:16:15;;;;;;;9.87;6.27;;;7.00;96.60;;;;;;5053283;28;20548;-69
2021/04/09 07:18:50;;;;;;;11.47;6.70;;;7.10;96.70;;;;;;5053711;28;20343;-70
2021/04/09 07:21:25;;;;;;;12.07;6.60;;;7.20;95.40;;;;;;5054016;28;20229;-71
2021/04/09 07:24:18;;;;;;;8.27;5.53;;;7.30;94.90;;;;;;5053799;28;20281;-72
2021/04/09 07:26:46;;;;;;;11.63;6.50;;;7.50;93.70;;;;;;5042222;28;20218;-69
2021/04/09 07:29:34;;;;;;;12.67;6.63;;;7.60;92.90;;;;;;5053358;28;20649;-68
2021/04/09 07:32:28;;;;;;;12.47;6.60;;;7.60;92.40;;;;;;5043603;28;20584;-71
2021/04/09 07:34:58;;;;;;;8.37;6.13;;;7.80;92.30;;;;;;5056403;28;20198;-71
2021/04/09 07:37:25;;;;;;;12.00;6.10;;;7.90;91.40;;;;;;5059766;28;20260;-71
2021/04/09 07:39:56;;;;;;;8.87;5.83;;;8.00;90.10;;;;;;5061508;28;20288;-69
2021/04/09 07:42:31;;;;;;;8.97;5.67;;;8.10;88.60;;;;;;5056150;28;20714;-69
2021/04/09 07:45:00;;;;;;;10.00;4.90;;;8.10;87.80;;;;;;5058588;28;20318;-69
2021/04/09 07:47:27;;;;;;;11.07;5.50;;;8.20;86.90;;;;;;5060481;28;20209;-69
2021/04/09 07:50:08;;;;;;;7.87;5.20;;;8.30;85.50;;;;;;5053706;28;20205;-70
2021/04/09 07:52:40;;;;;;;7.90;5.17;;;8.40;82.70;;;;;;5054118;28;20617;-70
2021/04/09 07:55:18;;;;;;;9.67;5.70;;;8.40;80.70;;;;;;5056346;28;20209;-68
2021/04/09 07:57:45;;;;;;;8.43;5.50;;;8.50;81.50;;;;;;5052942;28;20198;-69
2021/04/09 08:00:24;;;;;;;9.27;5.10;;;8.50;79.50;;;;;;5057801;28;20236;-70
2021/04/09 08:02:52;;;;;;;7.87;5.20;;;8.60;76.70;;;;;;5051227;28;20316;-69
2021/04/09 08:05:20;;;;;;;8.83;5.70;;;8.70;75.80;;;;;;5056150;28;20285;-69
2021/04/09 08:07:47;;;;;;;10.63;5.17;;;8.90;74.70;;;;;;5056830;28;20313;-69
2021/04/09 08:10:14;;;;;;;8.67;5.20;;;9.00;73.60;;;;;;5057569;28;20236;-70
2021/04/09 08:12:42;;;;;;;8.83;5.13;;;9.20;72.50;;;;;;5059068;28;20221;-68
2021/04/09 08:15:14;;;;;;;7.27;4.67;;;9.30;71.60;;;;;;5059970;28;20319;-69
2021/04/09 08:17:42;;;;;;;7.27;4.40;;;9.50;70.50;;;;;;5058452;28;20567;-70
2021/04/09 08:20:14;;;;;;;7.20;4.43;;;9.60;65.00;;;;;;5059229;28;20714;-67
2021/04/09 08:22:42;;;;;;;7.23;4.10;;;9.60;63.60;;;;;;5058374;28;20376;-68
2021/04/09 08:25:09;;;;;;;8.17;4.17;;;9.70;62.60;;;;;;5051210;28;20206;-69
2021/04/09 08:27:37;;;;;;;8.23;4.07;;;9.80;61.70;;;;;;5057434;28;20237;-69
2021/04/09 08:30:05;;;;;;;6.87;4.23;;;9.90;59.60;;;;;;5060130;28;20206;-67
2021/04/09 08:32:33;;;;;;;7.47;4.10;;;10.00;58.50;;;;;;5055885;28;20268;-66
2021/04/09 08:35:00;;;;;;;6.13;4.20;;;10.10;58.30;;;;;;5052198;28;20202;-67
2021/04/09 08:37:28;;;;;;;7.13;4.83;;;10.20;57.30;;;;;;5054978;28;20706;-67
2021/04/09 08:39:55;;;;;;;12.20;4.47;;;10.20;57.30;;;;;;5056904;28;20210;-66
2021/04/09 08:42:22;;;;;;;9.53;4.20;;;10.40;56.20;;;;;;5059681;28;20614;-66
2021/04/09 08:44:48;;;;;;;6.90;4.53;;;10.50;56.30;;;;;;5055418;28;20202;-66
2021/04/09 08:47:17;;;;;;;6.43;3.90;;;10.60;55.50;;;;;;5054102;28;20301;-66
2021/04/09 08:49:44;;;;;;;5.73;3.93;;;10.70;55.30;;;;;;5053344;28;20220;-67
2021/04/09 08:52:14;;;;;;;8.47;4.00;;;10.90;55.10;;;;;;5048450;28;20227;-69
2021/04/09 08:54:50;;;;;;;10.77;4.50;;;11.10;54.90;;;;;;5044406;28;20229;-65
2021/04/09 08:57:27;;;;;;;7.07;3.60;;;11.20;53.70;;;;;;5054054;28;20206;-66
2021/04/09 09:00:11;;;;;;;5.60;3.83;;;11.30;51.90;;;;;;5049725;28;20667;-66
2021/04/09 09:02:41;;;;;;;6.13;4.10;;;11.40;51.80;;;;;;5050950;28;20571;-68
2021/04/09 09:05:09;;;;;;;6.43;3.73;;;11.50;51.00;;;;;;5058095;28;20210;-68
2021/04/09 09:07:59;;;;;;;6.37;3.73;;;11.50;50.60;;;;;;5054958;28;20232;-69
2021/04/09 09:10:53;;;;;;;7.23;4.13;;;11.60;50.80;;;;;;5053402;28;20295;-68
2021/04/09 09:13:41;;;;;;;4.77;3.13;;;11.90;50.20;;;;;;5052163;28;20210;-68
2021/04/09 09:16:16;;;;;;;5.27;3.87;;;11.80;49.30;;;;;;5056139;28;20690;-69
2021/04/09 09:18:44;;;;;;;5.50;3.57;;;11.70;47.70;;;;;;5060678;28;20205;-71
2021/04/09 09:21:25;;;;;;;5.60;3.63;;;11.60;47.90;;;;;;5057757;28;20206;-69
2021/04/09 09:23:54;;;;;;;5.47;3.50;;;11.70;48.00;;;;;;5055527;28;20649;-69
2021/04/09 09:26:23;;;;;;;4.93;3.70;;;11.90;47.10;;;;;;5057436;28;20600;-69
2021/04/09 09:29:08;;;;;;;6.83;4.40;;;12.10;48.20;;;;;;5055106;28;20261;-69
2021/04/09 09:31:35;;;;;;;4.93;3.43;;;12.20;46.30;;;;;;5066017;28;20217;-69
2021/04/09 09:34:41;;;;;;;8.03;4.60;;;12.30;46.60;;;;;;5066074;28;20301;-69
2021/04/09 09:37:13;;;;;;;7.63;4.63;;;12.40;46.50;;;;;;5067267;28;20202;-68
2021/04/09 09:39:42;;;;;;;7.73;4.33;;;12.70;46.70;;;;;;5059069;28;20210;-69
2021/04/09 09:42:13;;;;;;;8.83;5.67;;;12.90;45.80;;;;;;5058946;28;20236;-68
2021/04/09 09:44:45;;;;;;;7.77;4.63;;;13.10;46.50;;;;;;5057669;28;20198;-69
2021/04/09 09:47:23;;;;;;;7.27;4.97;;;13.30;45.30;;;;;;5057230;28;20312;-68
2021/04/09 09:50:19;;;;;;;10.07;5.27;;;13.40;45.50;;;;;;5059428;28;20200;-69
2021/04/09 09:52:47;;;;;;;8.93;4.57;;;13.50;45.20;;;;;;5054969;28;20221;-67
2021/04/09 09:55:17;;;;;;;10.07;4.73;;;13.40;44.90;;;;;;5055705;28;20293;-70
2021/04/09 09:57:46;;;;;;;8.90;4.97;;;13.30;44.30;;;;;;5055568;28;20380;-69
2021/04/09 10:00:14;;;;;;;7.50;4.33;;;13.20;44.80;;;;;;5056102;28;20228;-68
2021/04/09 10:02:42;;;;;;;9.77;4.70;;;13.10;44.10;;;;;;5053791;28;20289;-70
2021/04/09 10:05:09;;;;;;;10.03;4.50;;;13.00;44.30;;;;;;5054588;28;20223;-71
2021/04/09 10:07:37;;;;;;;8.13;4.70;;;13.10;44.50;;;;;;5054125;28;20229;-70
2021/04/09 10:10:05;;;;;;;8.30;5.13;;;13.30;44.10;;;;;;5052439;28;20233;-70
2021/04/09 10:12:33;;;;;;;7.30;4.57;;;13.40;44.30;;;;;;5048712;28;20546;-71
2021/04/09 10:14:59;;;;;;;10.33;5.00;;;13.50;44.80;;;;;;5054143;28;20684;-70
2021/04/09 10:17:25;;;;;;;7.30;4.50;;;13.50;43.90;;;;;;5052785;28;20702;-70
2021/04/09 10:20:00;;;;;;;7.87;4.60;;;13.50;44.30;;;;;;5056464;28;20214;-69
2021/04/09 10:22:27;;;;;;;6.23;4.40;;;13.70;44.40;;;;;;5053666;28;20251;-69
2021/04/09 10:24:53;;;;;;;7.23;4.47;;;14.00;43.30;;;;;;5053086;28;20201;-69
2021/04/09 10:27:20;;;;;;;8.90;4.60;;;14.30;43.50;;;;;;5052497;28;20214;-70
2021/04/09 10:29:48;;;;;;;7.07;4.80;;;14.60;42.50;;;;;;5053419;28;20202;-69
2021/04/09 10:32:17;;;;;;;6.30;4.47;;;14.90;41.50;;;;;;5052828;28;20308;-69
2021/04/09 10:34:46;;;;;;;7.70;4.80;;;14.90;40.90;;;;;;5053208;28;20205;-69
2021/04/09 10:37:24;;;;;;;6.33;4.57;;;15.10;41.10;;;;;;5050740;28;20237;-68
2021/04/09 10:39:52;;;;;;;5.97;4.10;;;15.10;40.20;;;;;;5052721;28;20208;-68
2021/04/09 10:42:19;;;;;;;8.57;5.00;;;15.00;40.70;;;;;;5053863;28;20212;-69
2021/04/09 10:44:47;;;;;;;5.43;3.87;;;15.10;39.80;;;;;;5053147;28;20241;-69
2021/04/09 10:47:13;;;;;;;7.60;5.07;;;15.00;39.80;;;;;;5042601;28;20244;-69
2021/04/09 10:49:41;;;;;;;8.13;4.67;;;14.80;40.30;;;;;;5053290;28;20213;-70
2021/04/09 10:52:09;;;;;;;9.27;4.33;;;14.70;40.70;;;;;;5052259;28;20233;-68
2021/04/09 10:54:36;;;;;;;6.23;3.80;;;14.70;40.80;;;;;;5051093;28;20206;-68
2021/04/09 10:57:05;;;;;;;6.80;4.30;;;14.80;40.70;;;;;;5048331;28;20240;-69
2021/04/09 10:59:33;;;;;;;5.87;3.53;;;14.90;40.40;;;;;;5051176;28;20210;-69
2021/04/09 11:02:02;;;;;;;7.67;4.63;;;15.10;40.60;;;;;;5048454;28;20231;-68
2021/04/09 11:04:30;;;;;;;6.10;4.30;;;15.30;40.10;;;;;;5051513;28;20202;-71
2021/04/09 11:06:58;;;;;;;7.07;4.17;;;15.60;39.70;;;;;;5054023;28;20289;-68
2021/04/09 11:09:37;;;;;;;9.13;3.97;;;15.70;38.60;;;;;;5051138;28;20667;-69
2021/04/09 11:12:17;;;;;;;5.53;4.03;;;15.70;38.70;;;;;;5054550;28;20206;-70
2021/04/09 11:14:43;;;;;;;8.00;4.30;;;15.70;38.30;;;;;;5048893;28;20234;-71
2021/04/09 11:17:21;;;;;;;4.77;4.03;;;15.70;37.90;;;;;;5054944;28;20286;-70
2021/04/09 11:19:52;;;;;;;5.37;4.43;;;15.70;37.90;;;;;;5054552;28;20380;-70
2021/04/09 11:22:19;;;;;;;7.87;4.47;;;15.70;38.70;;;;;;5052069;28;20206;-70
2021/04/09 11:24:56;;;;;;;6.23;4.17;;;15.60;38.30;;;;;;5051707;28;20647;-70
2021/04/09 11:27:24;;;;;;;7.70;4.33;;;15.70;38.70;;;;;;5053991;28;20228;-68
2021/04/09 11:29:51;;;;;;;8.23;4.30;;;15.70;38.60;;;;;;5050624;28;20292;-69
2021/04/09 11:32:21;;;;;;;7.20;3.97;;;15.90;39.20;;;;;;5050685;28;20228;-70
2021/04/09 11:34:50;;;;;;;7.80;4.30;;;16.10;38.00;;;;;;5050286;28;20206;-68
2021/04/09 11:37:20;;;;;;;9.37;4.90;;;16.10;37.70;;;;;;5048815;28;20698;-67
2021/04/09 11:39:54;;;;;;;6.13;4.73;;;16.10;37.10;;;;;;5052057;28;20269;-66
2021/04/09 11:42:30;;;;;;;8.50;4.60;;;16.10;37.40;;;;;;5050408;28;20210;-66
2021/04/09 11:44:58;;;;;;;7.10;4.50;;;16.00;37.50;;;;;;5047054;28;20571;-67
2021/04/09 11:47:27;;;;;;;7.20;4.17;;;16.00;37.50;;;;;;5047675;28;20210;-68
2021/04/09 11:50:04;;;;;;;8.90;4.77;;;15.90;37.90;;;;;;5047749;28;20260;-67
2021/04/09 11:52:31;;;;;;;6.53;4.63;;;16.00;38.20;;;;;;5050978;28;20223;-66
2021/04/09 11:54:57;;;;;;;7.10;4.20;;;16.00;38.20;;;;;;5052653;28;20217;-66
2021/04/09 11:57:25;;;;;;;7.20;4.97;;;16.20;38.00;;;;;;5046735;28;20301;-68
2021/04/09 11:59:52;;;;;;;6.60;4.63;;;16.20;37.20;;;;;;5048623;28;20212;-68
2021/04/09 12:02:26;;;;;;;6.67;4.70;;;16.10;36.70;;;;;;5048237;28;20207;-66
2021/04/09 12:04:53;;;;;;;6.87;5.20;;;15.90;37.30;;;;;;5051810;28;20201;-69
2021/04/09 12:07:21;;;;;;;7.17;4.87;;;15.70;37.50;;;;;;5050511;28;20296;-66
2021/04/09 12:09:51;;;;;;;7.00;4.30;;;15.60;37.90;;;;;;5048135;28;20655;-66
2021/04/09 12:12:18;;;;;;;9.37;5.17;;;15.60;38.00;;;;;;5046986;28;20361;-66
2021/04/09 12:14:46;;;;;;;7.13;4.60;;;15.50;38.20;;;;;;5046497;28;20637;-66
2021/04/09 12:17:14;;;;;;;6.67;4.33;;;15.60;38.30;;;;;;5049361;28;20225;-66
2021/04/09 12:19:43;;;;;;;9.37;4.50;;;15.60;37.80;;;;;;5049832;28;20658;-66
2021/04/09 12:22:10;;;;;;;8.47;5.03;;;15.60;37.80;;;;;;5052390;28;20202;-66
2021/04/09 12:24:36;;;;;;;7.20;4.43;;;15.70;38.30;;;;;;5054937;28;20202;-66
2021/04/09 12:27:04;;;;;;;5.07;4.10;;;15.80;37.90;;;;;;5054992;28;20574;-67
2021/04/09 12:29:30;;;;;;;5.90;4.43;;;15.80;37.10;;;;;;5060573;28;20237;-67
2021/04/09 12:31:57;;;;;;;9.40;4.70;;;15.60;36.80;;;;;;5056744;28;20255;-69
2021/04/09 12:34:24;;;;;;;8.23;4.50;;;15.50;37.40;;;;;;5050473;28;20206;-67
2021/04/09 12:36:52;;;;;;;7.20;5.00;;;15.50;37.90;;;;;;5051123;28;20232;-66
2021/04/09 12:39:20;;;;;;;9.60;5.13;;;15.40;37.90;;;;;;5048716;28;20320;-68
2021/04/09 12:41:47;;;;;;;8.87;5.30;;;15.40;38.60;;;;;;5050433;28;20206;-68
2021/04/09 12:44:14;;;;;;;7.73;5.00;;;15.40;38.90;;;;;;5050439;28;20236;-67
2021/04/09 12:46:41;;;;;;;7.40;4.93;;;15.60;39.00;;;;;;5053977;28;20256;-68
2021/04/09 12:49:07;;;;;;;6.53;4.50;;;15.60;38.70;;;;;;5051223;28;20209;-68
2021/04/09 12:51:34;;;;;;;7.53;5.07;;;15.80;38.80;;;;;;5052983;28;20223;-68
2021/04/09 12:54:02;;;;;;;7.63;5.17;;;15.90;38.60;;;;;;5050982;28;20281;-68
2021/04/09 12:56:28;;;;;;;6.83;4.00;;;15.90;37.90;;;;;;5056585;28;20213;-68